Terminal Aerodrome Forecast
Issued by NWS

Home | Current Version | Previous Version | Text Only | Print | Product List | Glossary On
Versions: 1 2 3 4 5 6 7 8 9 10 11 12 13 14 15 16 17
000
FTPA31 PHFO 061132
TAFHTO
TAF
PHTO 061132Z 0612/0712 23005KT P6SM FEW025 SCT040
     FM062000 05007KT P6SM VCSH SCT025 BKN040
     FM070500 24005KT P6SM VCSH SCT025 BKN040=

USA.gov is the U.S. government's official web portal to all federal, state and local government web resources and services.